Impacts TAF Board INFO
FOR SITUATIONAL AWARENESS. NOT TO BE USED FOR FLIGHT PLANNING PURPOSES.
IDs:

KDTW - Detroit Metro/Wayne, MI, US

Issued at 0947 UTC 24 Jun 2018
Updated at 1037 UTC 24 Jun 2018
Potential Impact None Slight Moderate High
Time<<25/11Z 25/12Z 25/13Z 25/14Z 25/15Z 25/16Z 25/17Z 25/18Z 25/19Z 25/20Z 25/21Z 25/22Z 25/23Z
Type PRVL
VIS >6
CIG --
Cover SCT
FltCat VFR
WX --
WDir 30
WSpd 6
WGst --

Raw TAF
KDTW 240947Z 2410/2512 25006KT 6SM BR VCSH SCT030 OVC060
  TEMPO 2410/2412 6SM BR BKN035 OVC050
  FM241400 32005KT 6SM -SHRA BKN025 OVC040
  FM241900 01007KT P6SM BKN030 BKN050
  FM250100 03006KT P6SM SCT250


METAR Board
Radar Display
Forecast Discussion

FOR SITUATIONAL AWARENESS. NOT TO BE USED FOR FLIGHT PLANNING PURPOSES.